Аэропорт: Усть-Каменогорск. Усть-Каменогорск

ICAO: UASK

METAR:
2024-05-18 16:00:00
UASK 181600Z 00000MPS 9999 NSC 16/09 Q1008 NOSIG RMK QFE731/0974
TAF:
Информация по данной станции не доступна